Time,TemperatureF,DewpointF,PressureIn,WindDirection,WindDirectionDegrees,WindSpeedMPH,WindSpeedGustMPH,Humidity,HourlyPrecipIn,Conditions,Clouds,dailyrainin,SoftwareType,DateUTC
2015-03-03 00:00:00,29.2,17.7,30.23,ESE,113,0.0,0.0,62,0.00,,,0.00,WUHU216HW,2015-03-03 05:00:00,
2015-03-03 00:05:00,29.2,17.7,30.23,ESE,113,0.0,0.0,62,0.00,,,0.00,WUHU216HW,2015-03-03 05:05:00,
2015-03-03 00:30:00,27.7,16.4,30.23,SW,225,0.0,0.0,62,0.00,,,0.00,WUHU216HW,2015-03-03 05:30:00,
2015-03-03 00:35:00,27.7,16.4,30.23,SW,225,0.0,0.0,62,0.00,,,0.00,WUHU216HW,2015-03-03 05:35:00,
2015-03-03 00:59:00,27.0,16.7,30.23,North,0,0.0,0.0,65,0.00,,,0.00,WUHU216HW,2015-03-03 05:59:00,
2015-03-03 01:00:00,27.0,16.7,30.23,North,0,0.0,0.0,65,0.00,,,0.00,WUHU216HW,2015-03-03 06:00:00,
2015-03-03 01:05:00,27.0,16.7,30.23,North,0,0.0,0.0,65,0.00,,,0.00,WUHU216HW,2015-03-03 06:05:00,
2015-03-03 01:30:00,26.8,16.9,30.24,ESE,113,0.2,0.2,66,0.00,,,0.00,WUHU216HW,2015-03-03 06:30:00,
2015-03-03 01:35:00,26.8,16.9,30.24,ESE,113,0.2,0.2,66,0.00,,,0.00,WUHU216HW,2015-03-03 06:35:00,
2015-03-03 01:59:00,26.5,16.6,30.23,East,90,0.0,0.0,66,0.00,,,0.00,WUHU216HW,2015-03-03 06:59:00,
2015-03-03 02:00:00,26.5,16.6,30.23,East,90,0.0,0.0,66,0.00,,,0.00,WUHU216HW,2015-03-03 07:00:00,
2015-03-03 02:05:00,26.5,16.6,30.23,East,90,0.0,0.0,66,0.00,,,0.00,WUHU216HW,2015-03-03 07:05:00,
2015-03-03 02:30:00,25.9,17.1,30.24,NE,45,0.0,0.0,69,0.00,,,0.00,WUHU216HW,2015-03-03 07:30:00,
2015-03-03 02:35:00,25.9,17.1,30.24,NE,45,0.0,0.0,69,0.00,,,0.00,WUHU216HW,2015-03-03 07:35:00,
2015-03-03 02:59:00,25.7,17.3,30.23,NNW,338,0.0,0.0,70,0.00,,,0.00,WUHU216HW,2015-03-03 07:59:00,
2015-03-03 03:00:00,25.7,17.3,30.23,NNW,338,0.0,0.0,70,0.00,,,0.00,WUHU216HW,2015-03-03 08:00:00,
2015-03-03 03:05:00,25.7,17.3,30.23,NNW,338,0.0,0.0,70,0.00,,,0.00,WUHU216HW,2015-03-03 08:05:00,
2015-03-03 03:30:00,25.6,17.7,30.23,NNW,338,0.0,0.0,72,0.00,,,0.00,WUHU216HW,2015-03-03 08:30:00,
2015-03-03 03:35:00,25.6,17.7,30.23,NNW,338,0.0,0.0,72,0.00,,,0.00,WUHU216HW,2015-03-03 08:35:00,
2015-03-03 03:59:00,25.0,17.2,30.23,NW,315,0.0,0.0,72,0.00,,,0.00,WUHU216HW,2015-03-03 08:59:00,
2015-03-03 04:00:00,25.0,17.2,30.23,NW,315,0.0,0.0,72,0.00,,,0.00,WUHU216HW,2015-03-03 09:00:00,
2015-03-03 04:05:00,25.0,17.2,30.23,NW,315,0.0,0.0,72,0.00,,,0.00,WUHU216HW,2015-03-03 09:05:00,
2015-03-03 04:30:00,24.7,16.8,30.23,NW,315,0.0,0.0,72,0.00,,,0.00,WUHU216HW,2015-03-03 09:30:00,
2015-03-03 04:35:00,24.7,16.8,30.23,NW,315,0.0,0.0,72,0.00,,,0.00,WUHU216HW,2015-03-03 09:35:00,
2015-03-03 05:00:00,24.8,17.6,30.23,SSE,158,0.0,0.0,74,0.00,,,0.00,WUHU216HW,2015-03-03 10:00:00,
2015-03-03 05:05:00,24.8,17.6,30.23,SSE,158,0.0,0.0,74,0.00,,,0.00,WUHU216HW,2015-03-03 10:05:00,
2015-03-03 05:30:00,24.5,17.0,30.24,WNW,293,0.0,0.0,73,0.00,,,0.00,WUHU216HW,2015-03-03 10:30:00,
2015-03-03 05:35:00,24.5,17.0,30.24,WNW,293,0.0,0.0,73,0.00,,,0.00,WUHU216HW,2015-03-03 10:35:00,
2015-03-03 06:00:00,24.5,17.6,30.26,NW,315,0.0,0.0,75,0.00,,,0.00,WUHU216HW,2015-03-03 11:00:00,
2015-03-03 06:05:00,24.5,17.6,30.26,NW,315,0.0,0.0,75,0.00,,,0.00,WUHU216HW,2015-03-03 11:05:00,
2015-03-03 06:30:00,24.5,18.0,30.26,NNW,338,0.0,0.0,76,0.00,,,0.00,WUHU216HW,2015-03-03 11:30:00,
2015-03-03 06:35:00,24.5,18.0,30.26,NNW,338,0.0,0.0,76,0.00,,,0.00,WUHU216HW,2015-03-03 11:35:00,
2015-03-03 07:00:00,24.3,17.5,30.26,NNW,338,0.0,0.0,75,0.00,,,0.00,WUHU216HW,2015-03-03 12:00:00,
2015-03-03 07:05:00,24.3,17.5,30.26,NNW,338,0.0,0.0,75,0.00,,,0.00,WUHU216HW,2015-03-03 12:05:00,
2015-03-03 07:30:00,24.7,18.5,30.27,NNW,338,0.0,0.0,77,0.00,,,0.00,WUHU216HW,2015-03-03 12:30:00,
2015-03-03 07:35:00,24.7,18.5,30.27,NNW,338,0.0,0.0,77,0.00,,,0.00,WUHU216HW,2015-03-03 12:35:00,
2015-03-03 07:59:00,28.1,21.4,30.27,SE,135,0.4,0.4,76,0.00,,,0.00,WUHU216HW,2015-03-03 12:59:00,
2015-03-03 08:00:00,28.1,21.4,30.27,SE,135,0.4,0.4,76,0.00,,,0.00,WUHU216HW,2015-03-03 13:00:00,
2015-03-03 08:05:00,28.1,21.4,30.27,SE,135,0.4,0.4,76,0.00,,,0.00,WUHU216HW,2015-03-03 13:05:00,
2015-03-03 08:30:00,30.4,20.3,30.27,ENE,68,0.4,0.4,66,0.00,,,0.00,WUHU216HW,2015-03-03 13:30:00,
2015-03-03 08:35:00,30.4,20.3,30.27,ENE,68,0.4,0.4,66,0.00,,,0.00,WUHU216HW,2015-03-03 13:35:00,
2015-03-03 08:59:00,31.3,18.3,30.27,NE,45,0.4,0.4,58,0.00,,,0.00,WUHU216HW,2015-03-03 13:59:00,
2015-03-03 09:00:00,31.3,18.3,30.27,NE,45,0.4,0.4,58,0.00,,,0.00,WUHU216HW,2015-03-03 14:00:00,
2015-03-03 09:05:00,31.3,18.3,30.27,NE,45,0.4,0.4,58,0.00,,,0.00,WUHU216HW,2015-03-03 14:05:00,
2015-03-03 09:30:00,31.9,18.4,30.26,SE,135,1.8,1.8,57,0.00,,,0.00,WUHU216HW,2015-03-03 14:30:00,
2015-03-03 09:35:00,31.9,18.4,30.26,SE,135,1.8,1.8,57,0.00,,,0.00,WUHU216HW,2015-03-03 14:35:00,
2015-03-03 09:59:00,33.1,19.4,30.25,East,90,0.4,0.4,57,0.00,,,0.00,WUHU216HW,2015-03-03 14:59:00,
2015-03-03 10:00:00,33.1,19.4,30.25,East,90,0.4,0.4,57,0.00,,,0.00,WUHU216HW,2015-03-03 15:00:00,
2015-03-03 10:05:00,33.1,19.4,30.25,East,90,0.4,0.4,57,0.00,,,0.00,WUHU216HW,2015-03-03 15:05:00,
2015-03-03 10:30:00,34.6,20.0,30.24,South,180,2.9,2.9,55,0.00,,,0.00,WUHU216HW,2015-03-03 15:30:00,
2015-03-03 10:35:00,34.6,20.0,30.24,South,180,2.9,2.9,55,0.00,,,0.00,WUHU216HW,2015-03-03 15:35:00,
2015-03-03 11:00:00,33.8,19.7,30.23,SE,135,1.1,1.1,56,0.00,,,0.00,WUHU216HW,2015-03-03 16:00:00,
2015-03-03 11:05:00,33.8,19.7,30.23,SE,135,1.1,1.1,56,0.00,,,0.00,WUHU216HW,2015-03-03 16:05:00,
2015-03-03 11:30:00,33.8,19.7,30.21,South,180,1.3,1.3,56,0.00,,,0.00,WUHU216HW,2015-03-03 16:30:00,
2015-03-03 11:35:00,33.8,19.7,30.21,South,180,1.3,1.3,56,0.00,,,0.00,WUHU216HW,2015-03-03 16:35:00,
2015-03-03 12:00:00,34.9,19.4,30.18,SSE,158,4.9,4.9,53,0.00,,,0.00,WUHU216HW,2015-03-03 17:00:00,
2015-03-03 12:05:00,34.9,19.9,30.18,SSW,203,3.4,4.9,54,0.00,,,0.00,WUHU216HW,2015-03-03 17:05:00,
2015-03-03 12:30:00,34.6,19.1,30.16,SSE,158,2.5,2.5,53,0.00,,,0.00,WUHU216HW,2015-03-03 17:30:00,
2015-03-03 12:35:00,34.6,19.1,30.16,SSE,158,2.5,2.5,53,0.00,,,0.00,WUHU216HW,2015-03-03 17:35:00,
2015-03-03 13:00:00,34.4,19.8,30.14,ESE,113,3.4,3.4,55,0.00,,,0.00,WUHU216HW,2015-03-03 18:00:00,
2015-03-03 13:05:00,34.4,19.8,30.14,ESE,113,3.4,3.4,55,0.00,,,0.00,WUHU216HW,2015-03-03 18:05:00,
2015-03-03 13:30:00,34.2,19.6,30.09,SE,135,2.7,2.7,55,0.00,,,0.00,WUHU216HW,2015-03-03 18:30:00,
2015-03-03 13:35:00,34.2,19.6,30.09,SE,135,2.7,2.7,55,0.00,,,0.00,WUHU216HW,2015-03-03 18:35:00,
2015-03-03 13:59:00,34.2,20.1,30.08,SE,135,1.3,1.3,56,0.00,,,0.00,WUHU216HW,2015-03-03 18:59:00,
2015-03-03 14:00:00,34.2,20.1,30.08,SE,135,1.3,1.3,56,0.00,,,0.00,WUHU216HW,2015-03-03 19:00:00,
2015-03-03 14:05:00,34.2,20.1,30.08,SE,135,1.3,1.3,56,0.00,,,0.00,WUHU216HW,2015-03-03 19:05:00,